Tallinn, Estonia
Current Conditions -  °F | °C
As of 12:20 PM on Friday 24 Oct 2014 (Local Time) from EETN Reporting Station
Clear Clear  
Wind Chill: 20°   Ceiling: Unl
Heat Index: 32°   Visibility: 6mi
Dew Point:   Wind: 18mph
Humidity: 38%   Direction: 170°S
Pressure: 30.5"   Gusts: NA
Location:  59.44°N, 24.74°E
Report Text: EETN 241020Z 17016KT CAVOK M00/M13 Q1033 NOSIG
Loading
Personal Weather Stations






























Interactive Weather Map New forecast layout! Learn more

10-Day Weather Forecast

Advertisements
Track Severe Weather on mobile